createdAt,value
2017-12-08T00:01:18.697Z,5.88
2017-12-08T00:03:45.234Z,5.94
2017-12-08T00:06:11.688Z,5.86
2017-12-08T00:08:38.176Z,5.86
2017-12-08T00:11:04.592Z,5.88
2017-12-08T00:13:31.066Z,5.83
2017-12-08T00:15:57.541Z,5.77
2017-12-08T00:18:24.052Z,5.76
2017-12-08T00:20:50.517Z,5.68
2017-12-08T00:23:17.023Z,5.63
2017-12-08T00:25:43.488Z,5.59
2017-12-08T00:28:09.993Z,5.48
2017-12-08T00:30:36.456Z,5.46
2017-12-08T00:33:02.946Z,5.49
2017-12-08T00:35:29.396Z,5.54
2017-12-08T00:37:55.828Z,5.50
2017-12-08T00:40:22.284Z,5.47
2017-12-08T00:42:48.776Z,5.46
2017-12-08T00:45:15.236Z,5.59
2017-12-08T00:47:41.656Z,5.66
2017-12-08T00:50:08.052Z,5.61
2017-12-08T00:52:34.630Z,5.56
2017-12-08T00:55:01.148Z,5.49
2017-12-08T00:57:27.703Z,5.44
2017-12-08T00:59:54.192Z,5.40
2017-12-08T01:02:20.637Z,5.39
2017-12-08T01:04:47.089Z,5.44
2017-12-08T01:07:13.601Z,5.52
2017-12-08T01:09:40.052Z,5.48
2017-12-08T01:12:06.488Z,5.47
2017-12-08T01:14:32.974Z,5.56
2017-12-08T01:16:59.457Z,5.55
2017-12-08T01:19:25.852Z,5.50
2017-12-08T01:21:52.353Z,5.51
2017-12-08T01:24:18.808Z,5.47
2017-12-08T01:26:45.415Z,5.47
2017-12-08T01:29:11.913Z,5.42
2017-12-08T01:31:38.313Z,5.48
2017-12-08T01:34:04.749Z,5.44
2017-12-08T01:36:31.219Z,5.31
2017-12-08T01:38:57.889Z,5.27
2017-12-08T01:41:24.300Z,5.31
2017-12-08T01:43:50.793Z,5.32
2017-12-08T01:46:17.292Z,5.30
2017-12-08T01:48:43.769Z,5.40
2017-12-08T01:51:10.361Z,5.42
2017-12-08T01:53:36.835Z,5.37
2017-12-08T01:56:03.325Z,5.31
2017-12-08T01:58:29.963Z,5.27
2017-12-08T02:00:56.504Z,5.25
2017-12-08T02:03:23.142Z,5.26
2017-12-08T02:05:49.679Z,5.20
2017-12-08T02:08:16.105Z,5.30
2017-12-08T02:10:42.605Z,5.32
2017-12-08T02:13:09.167Z,5.25
2017-12-08T02:15:35.597Z,5.26
2017-12-08T02:18:02.133Z,5.34
2017-12-08T02:20:28.778Z,5.33
2017-12-08T02:22:55.277Z,5.24
2017-12-08T02:25:21.773Z,5.15
2017-12-08T02:27:48.376Z,5.09
2017-12-08T02:30:14.884Z,5.09
2017-12-08T02:32:41.449Z,5.12
2017-12-08T02:35:08.003Z,5.14
2017-12-08T02:37:34.472Z,5.13
2017-12-08T02:40:00.908Z,5.11
2017-12-08T02:42:27.393Z,5.04
2017-12-08T02:44:54.063Z,4.94
2017-12-08T02:47:20.613Z,5.02
2017-12-08T02:49:47.197Z,5.11
2017-12-08T02:52:13.737Z,5.14
2017-12-08T02:54:40.209Z,5.04
2017-12-08T02:57:06.725Z,5.03
2017-12-08T02:59:33.169Z,5.14
2017-12-08T03:01:59.794Z,5.17
2017-12-08T03:04:26.289Z,5.23
2017-12-08T03:06:52.761Z,5.16
2017-12-08T03:09:19.307Z,5.14
2017-12-08T03:11:45.857Z,5.09
2017-12-08T03:14:12.321Z,4.95
2017-12-08T03:16:39.010Z,4.93
2017-12-08T03:19:05.526Z,4.96
2017-12-08T03:21:32.079Z,4.96
2017-12-08T03:23:58.573Z,4.88
2017-12-08T03:26:25.149Z,4.84
2017-12-08T03:28:51.637Z,4.88
2017-12-08T03:31:18.049Z,4.89
2017-12-08T03:33:44.628Z,4.79
2017-12-08T03:36:11.093Z,4.72
2017-12-08T03:38:37.552Z,4.76
2017-12-08T03:41:04.080Z,4.84
2017-12-08T03:43:30.694Z,4.91
2017-12-08T03:45:57.146Z,4.86
2017-12-08T03:48:23.630Z,4.94
2017-12-08T03:50:50.100Z,4.98
2017-12-08T03:53:16.560Z,4.89
2017-12-08T03:55:43.148Z,4.89
2017-12-08T03:58:09.688Z,4.72
2017-12-08T04:00:36.347Z,4.67
2017-12-08T04:03:02.861Z,4.68
2017-12-08T04:05:29.316Z,4.63
2017-12-08T04:07:55.781Z,4.50
2017-12-08T04:10:22.289Z,4.39
2017-12-08T04:12:48.818Z,4.32
2017-12-08T04:15:15.261Z,4.26
2017-12-08T04:17:41.786Z,4.27
2017-12-08T04:20:08.230Z,4.28
2017-12-08T04:22:34.694Z,4.23
2017-12-08T04:25:01.169Z,4.13
2017-12-08T04:27:27.633Z,4.09
2017-12-08T04:29:54.156Z,3.94
2017-12-08T04:32:20.685Z,3.97
2017-12-08T04:34:47.139Z,4.04
2017-12-08T04:37:13.616Z,4.08
2017-12-08T04:39:40.097Z,4.03
2017-12-08T04:42:06.553Z,4.01
2017-12-08T04:44:32.997Z,3.96
2017-12-08T04:46:59.605Z,3.91
2017-12-08T04:49:26.117Z,3.91
2017-12-08T04:51:52.799Z,3.97
2017-12-08T04:54:19.369Z,4.11
2017-12-08T04:56:45.839Z,4.06
2017-12-08T04:59:12.307Z,4.01
2017-12-08T05:01:38.900Z,3.97
2017-12-08T05:04:05.353Z,3.99
2017-12-08T05:06:31.805Z,3.94
2017-12-08T05:08:58.280Z,3.90
2017-12-08T05:11:24.733Z,3.92
2017-12-08T05:13:51.270Z,3.90
2017-12-08T05:16:17.761Z,3.91
2017-12-08T05:18:44.213Z,4.03
2017-12-08T05:21:10.722Z,4.04
2017-12-08T05:23:37.293Z,3.88
2017-12-08T05:26:03.780Z,3.91
2017-12-08T05:28:30.228Z,3.90
2017-12-08T05:30:56.722Z,3.85
2017-12-08T05:33:23.277Z,3.84
2017-12-08T05:35:49.696Z,3.82
2017-12-08T05:38:16.236Z,3.82
2017-12-08T05:40:42.702Z,3.87
2017-12-08T05:43:09.509Z,3.89
2017-12-08T05:45:36.100Z,3.89
2017-12-08T05:48:02.574Z,3.87
2017-12-08T05:50:29.097Z,3.98
2017-12-08T05:52:55.757Z,4.08
2017-12-08T05:55:22.376Z,4.09
2017-12-08T05:57:49.042Z,4.06
2017-12-08T06:00:15.573Z,4.02
2017-12-08T06:02:42.301Z,3.93
2017-12-08T06:05:08.819Z,3.94
2017-12-08T06:07:35.304Z,4.04
2017-12-08T06:10:01.744Z,3.98
2017-12-08T06:12:28.320Z,3.98
2017-12-08T06:14:54.844Z,4.04
2017-12-08T06:17:21.277Z,4.11
2017-12-08T06:19:47.736Z,4.15
2017-12-08T06:22:14.221Z,4.18
2017-12-08T06:24:41.005Z,4.15
2017-12-08T06:27:07.480Z,4.15
2017-12-08T06:29:33.981Z,4.22
2017-12-08T06:32:00.529Z,4.27
2017-12-08T06:34:26.945Z,4.36
2017-12-08T06:36:53.429Z,4.37
2017-12-08T06:39:19.843Z,4.51
2017-12-08T06:41:46.269Z,4.65
2017-12-08T06:44:12.781Z,4.72
2017-12-08T06:46:39.317Z,4.77
2017-12-08T06:49:05.847Z,4.84
2017-12-08T06:51:32.309Z,4.89
2017-12-08T06:53:58.842Z,4.90
2017-12-08T06:56:25.289Z,4.91
2017-12-08T06:58:51.754Z,4.90
2017-12-08T07:01:18.445Z,4.86
2017-12-08T07:03:45.112Z,4.90
2017-12-08T07:06:12.013Z,5.03
2017-12-08T07:08:38.528Z,5.10
2017-12-08T07:11:05.295Z,5.09
2017-12-08T07:13:31.895Z,5.11
2017-12-08T07:15:58.309Z,5.17
2017-12-08T07:18:24.816Z,5.20
2017-12-08T07:20:51.550Z,5.29
2017-12-08T07:23:18.188Z,5.38
2017-12-08T07:25:44.683Z,5.48
2017-12-08T07:28:11.346Z,5.61
2017-12-08T07:30:37.912Z,5.73
2017-12-08T07:33:04.840Z,5.85
2017-12-08T07:35:31.684Z,5.93
2017-12-08T07:37:58.224Z,6.03
2017-12-08T07:40:24.846Z,6.14
2017-12-08T07:42:51.330Z,6.32
2017-12-08T07:45:17.841Z,6.52
2017-12-08T07:47:44.345Z,6.66
2017-12-08T07:50:10.917Z,6.75
2017-12-08T07:52:37.439Z,6.87
2017-12-08T07:55:03.901Z,6.97
2017-12-08T07:57:30.388Z,7.12
2017-12-08T07:59:56.920Z,7.27
2017-12-08T08:02:23.357Z,7.35
2017-12-08T08:04:49.904Z,7.41
2017-12-08T08:07:16.425Z,7.60
2017-12-08T08:09:42.839Z,7.69
2017-12-08T08:12:09.354Z,7.84
2017-12-08T08:14:35.880Z,7.96
2017-12-08T08:17:02.366Z,8.09
2017-12-08T08:19:28.905Z,8.18
2017-12-08T08:21:55.436Z,8.23
2017-12-08T08:24:22.091Z,8.24
2017-12-08T08:26:48.730Z,8.24
2017-12-08T08:29:15.368Z,8.28
2017-12-08T08:31:41.989Z,8.39
2017-12-08T08:34:08.625Z,8.48
2017-12-08T08:36:35.120Z,8.55
2017-12-08T08:39:01.700Z,8.56
2017-12-08T08:41:28.337Z,8.62
2017-12-08T08:43:54.888Z,8.74
2017-12-08T08:46:21.458Z,8.87
2017-12-08T08:48:48.107Z,8.86
2017-12-08T08:51:14.583Z,8.96
2017-12-08T08:53:41.236Z,8.98
2017-12-08T08:56:07.874Z,8.86
2017-12-08T08:58:35.351Z,8.95
2017-12-08T09:01:03.127Z,9.06
2017-12-08T09:03:30.147Z,9.07
2017-12-08T09:05:56.733Z,9.13
2017-12-08T09:08:23.338Z,9.29
2017-12-08T09:10:49.889Z,9.39
2017-12-08T09:13:16.495Z,9.46
2017-12-08T09:15:42.990Z,9.52
2017-12-08T09:18:09.670Z,9.58
2017-12-08T09:20:36.138Z,9.65
2017-12-08T09:23:02.954Z,9.57
2017-12-08T09:25:29.584Z,9.60
2017-12-08T09:27:56.116Z,9.73
2017-12-08T09:30:22.684Z,9.85
2017-12-08T09:32:49.301Z,9.98
2017-12-08T09:35:15.977Z,10.15
2017-12-08T09:37:42.392Z,10.19
2017-12-08T09:40:08.905Z,10.21
2017-12-08T09:42:35.360Z,10.31
2017-12-08T09:45:01.866Z,10.25
2017-12-08T09:47:28.673Z,10.38
2017-12-08T09:49:55.311Z,10.41
2017-12-08T09:52:21.779Z,10.49
2017-12-08T09:54:48.353Z,10.66
2017-12-08T09:57:14.837Z,10.72
2017-12-08T09:59:41.285Z,10.75
2017-12-08T10:02:09.065Z,10.92
2017-12-08T10:04:35.505Z,10.99
2017-12-08T10:07:02.211Z,10.91
2017-12-08T10:09:28.845Z,10.99
2017-12-08T10:11:55.381Z,10.97
2017-12-08T10:14:25.016Z,10.94
2017-12-08T10:16:54.838Z,11.17
2017-12-08T10:19:21.456Z,11.11
2017-12-08T10:21:47.941Z,11.19
2017-12-08T10:24:14.509Z,11.25
2017-12-08T10:26:41.747Z,11.18
2017-12-08T10:29:08.601Z,11.04
2017-12-08T10:31:35.123Z,11.05
2017-12-08T10:34:01.555Z,10.93
2017-12-08T10:36:28.019Z,11.02
2017-12-08T10:38:54.571Z,11.15
2017-12-08T10:41:21.076Z,11.22
2017-12-08T10:43:47.614Z,11.23
2017-12-08T10:46:14.376Z,11.28
2017-12-08T10:48:40.888Z,11.41
2017-12-08T10:51:07.321Z,11.46
2017-12-08T10:53:34.033Z,11.54
2017-12-08T10:56:00.601Z,11.63
2017-12-08T10:58:27.121Z,11.51
2017-12-08T11:00:53.688Z,11.52
2017-12-08T11:03:20.145Z,11.51
2017-12-08T11:05:46.625Z,11.60
2017-12-08T11:08:13.172Z,11.64
2017-12-08T11:10:39.943Z,11.67
2017-12-08T11:13:06.399Z,11.56
2017-12-08T11:15:32.917Z,11.68
2017-12-08T11:17:59.348Z,11.82
2017-12-08T11:20:26.689Z,11.98
2017-12-08T11:22:53.157Z,11.91
2017-12-08T11:25:19.652Z,11.91
2017-12-08T11:27:46.140Z,12.03
2017-12-08T11:30:12.612Z,11.91
2017-12-08T11:32:39.265Z,12.03
2017-12-08T11:35:05.693Z,12.10
2017-12-08T11:37:32.169Z,12.11
2017-12-08T11:39:58.772Z,12.09
2017-12-08T11:42:25.492Z,12.04
2017-12-08T11:44:52.125Z,11.97
2017-12-08T11:47:18.787Z,11.91
2017-12-08T11:49:45.328Z,12.10
2017-12-08T11:52:11.858Z,12.16
2017-12-08T11:54:38.273Z,12.14
2017-12-08T11:57:04.809Z,12.01
2017-12-08T11:59:31.411Z,12.05
2017-12-08T12:01:57.849Z,12.01
2017-12-08T12:04:24.273Z,11.96
2017-12-08T12:06:50.725Z,11.93
2017-12-08T12:09:17.148Z,11.79
2017-12-08T12:11:43.605Z,11.63
2017-12-08T12:14:10.068Z,11.65
2017-12-08T12:16:36.586Z,11.61
2017-12-08T12:19:02.997Z,11.62
2017-12-08T12:21:29.476Z,11.68
2017-12-08T12:23:55.985Z,11.78
2017-12-08T12:26:22.398Z,11.88
2017-12-08T12:28:48.971Z,11.85
2017-12-08T12:31:15.609Z,11.73
2017-12-08T12:33:42.285Z,11.65
2017-12-08T12:36:08.845Z,11.67
2017-12-08T12:38:35.282Z,11.74
2017-12-08T12:41:01.751Z,11.80
2017-12-08T12:43:28.204Z,11.85
2017-12-08T12:45:54.641Z,11.66
2017-12-08T12:48:21.493Z,11.71
2017-12-08T12:50:48.065Z,11.76
2017-12-08T12:53:14.642Z,11.76
2017-12-08T12:55:41.112Z,11.88
2017-12-08T12:58:07.818Z,11.93
2017-12-08T13:00:34.350Z,11.85
2017-12-08T13:03:00.793Z,11.85
2017-12-08T13:05:27.314Z,11.84
2017-12-08T13:07:53.720Z,11.99
2017-12-08T13:10:20.175Z,11.95
2017-12-08T13:12:46.637Z,12.00
2017-12-08T13:15:13.063Z,11.97
2017-12-08T13:17:39.466Z,11.97
2017-12-08T13:20:05.961Z,11.83
2017-12-08T13:22:32.345Z,11.78
2017-12-08T13:24:58.732Z,11.73
2017-12-08T13:27:25.213Z,11.82
2017-12-08T13:29:51.564Z,11.86
2017-12-08T13:32:17.920Z,11.85
2017-12-08T13:34:44.354Z,11.83
2017-12-08T13:37:10.717Z,11.85
2017-12-08T13:39:37.109Z,11.77
2017-12-08T13:42:03.539Z,11.67
2017-12-08T13:44:29.912Z,11.75
2017-12-08T13:46:56.288Z,11.70
2017-12-08T13:49:22.672Z,11.64
2017-12-08T13:51:49.145Z,11.67
2017-12-08T13:54:27.578Z,11.76
2017-12-08T13:56:54.055Z,11.84
2017-12-08T13:59:20.444Z,11.91
2017-12-08T14:01:46.964Z,11.85
2017-12-08T14:04:13.392Z,11.80
2017-12-08T14:06:39.819Z,11.68
2017-12-08T14:09:06.545Z,11.71
2017-12-08T14:11:33.025Z,11.70
2017-12-08T14:13:59.449Z,11.66
2017-12-08T14:16:25.991Z,11.65
2017-12-08T14:18:52.381Z,11.56
2017-12-08T14:21:18.764Z,11.54
2017-12-08T14:23:45.191Z,11.51
2017-12-08T14:26:11.576Z,11.42
2017-12-08T14:28:37.941Z,11.43
2017-12-08T14:31:04.364Z,11.40
2017-12-08T14:33:30.724Z,11.36
2017-12-08T14:35:57.283Z,11.39
2017-12-08T14:38:23.677Z,11.36
2017-12-08T14:40:50.091Z,11.30
2017-12-08T14:43:16.476Z,11.24
2017-12-08T14:45:43.137Z,11.18
2017-12-08T14:48:09.595Z,11.11
2017-12-08T14:50:35.960Z,11.12
2017-12-08T14:53:02.367Z,11.08
2017-12-08T14:55:28.722Z,11.10
2017-12-08T14:57:55.108Z,11.06
2017-12-08T15:00:21.516Z,11.03
2017-12-08T15:02:47.992Z,10.99
2017-12-08T15:11:16.873Z,10.70
2017-12-08T15:13:49.341Z,10.72
2017-12-08T15:16:15.728Z,10.68
2017-12-08T15:18:42.181Z,10.65
2017-12-08T15:21:08.556Z,10.58
2017-12-08T15:23:34.961Z,10.55
2017-12-08T15:26:01.396Z,10.47
2017-12-08T15:28:27.761Z,10.46
2017-12-08T15:30:54.122Z,10.48
2017-12-08T15:33:20.555Z,10.42
2017-12-08T15:35:46.976Z,10.41
2017-12-08T15:38:13.549Z,10.40
2017-12-08T15:40:41.604Z,10.43
2017-12-08T15:43:08.152Z,10.42
2017-12-08T15:48:06.605Z,10.37
2017-12-08T15:50:33.015Z,10.27
2017-12-08T15:52:59.529Z,10.20
2017-12-08T15:55:44.236Z,10.21
2017-12-08T15:58:15.639Z,10.12
2017-12-08T16:00:42.093Z,9.97
2017-12-08T16:03:08.556Z,9.88
2017-12-08T16:05:34.936Z,9.86
2017-12-08T16:08:01.445Z,9.82
2017-12-08T16:10:27.912Z,9.88
2017-12-08T16:12:54.300Z,9.90
2017-12-08T16:15:20.849Z,9.87
2017-12-08T16:17:48.282Z,9.81
2017-12-08T16:20:14.669Z,9.76
2017-12-08T16:22:41.101Z,9.72
2017-12-08T16:25:07.660Z,9.62
2017-12-08T16:27:34.073Z,9.54
2017-12-08T16:30:00.481Z,9.43
2017-12-08T16:32:26.914Z,9.39
2017-12-08T16:34:53.324Z,9.19
2017-12-08T16:37:19.704Z,9.02
2017-12-08T16:39:46.188Z,8.99
2017-12-08T16:42:12.588Z,8.91
2017-12-08T16:44:38.996Z,8.90
2017-12-08T16:47:05.420Z,8.87
2017-12-08T16:49:31.760Z,8.85
2017-12-08T16:51:58.128Z,8.77
2017-12-08T16:54:24.512Z,8.78
2017-12-08T16:56:50.955Z,8.85
2017-12-08T16:59:17.520Z,8.95
2017-12-08T17:01:44.104Z,9.04
2017-12-08T17:04:10.457Z,9.03
2017-12-08T17:06:36.820Z,8.98
2017-12-08T17:09:03.516Z,8.88
2017-12-08T17:11:29.860Z,8.80
2017-12-08T17:13:56.389Z,8.71
2017-12-08T17:16:22.885Z,8.72
2017-12-08T17:18:49.273Z,8.84
2017-12-08T17:21:15.672Z,8.98
2017-12-08T17:23:42.116Z,8.98
2017-12-08T17:26:08.539Z,8.97
2017-12-08T17:28:34.987Z,8.89
2017-12-08T17:31:01.468Z,8.82
2017-12-08T17:33:27.915Z,8.91
2017-12-08T17:35:54.361Z,8.95
2017-12-08T17:38:20.793Z,8.87
2017-12-08T17:40:48.413Z,8.67
2017-12-08T17:43:14.809Z,8.52
2017-12-08T17:45:41.220Z,8.45
2017-12-08T17:48:07.574Z,8.55
2017-12-08T17:50:33.924Z,8.57
2017-12-08T17:53:00.355Z,8.57
2017-12-08T17:55:26.789Z,8.61
2017-12-08T17:57:53.173Z,8.84
2017-12-08T18:00:20.573Z,8.78
2017-12-08T18:02:46.965Z,8.68
2017-12-08T18:05:14.022Z,8.65
2017-12-08T18:07:40.609Z,8.47
2017-12-08T18:10:07.034Z,8.34
2017-12-08T18:12:34.840Z,8.25
2017-12-08T18:15:01.281Z,8.12
2017-12-08T18:17:27.672Z,8.13
2017-12-08T18:19:54.123Z,8.00
2017-12-08T18:22:20.680Z,8.00
2017-12-08T18:24:47.112Z,8.05
2017-12-08T18:27:13.506Z,7.96
2017-12-08T18:29:42.434Z,7.90
2017-12-08T18:32:08.898Z,7.90
2017-12-08T18:34:35.293Z,7.85
2017-12-08T18:37:01.861Z,7.85
2017-12-08T18:39:28.265Z,7.86
2017-12-08T18:41:54.688Z,7.89
2017-12-08T18:44:21.097Z,7.92
2017-12-08T18:46:47.495Z,7.83
2017-12-08T18:49:13.852Z,7.76
2017-12-08T18:51:40.292Z,7.77
2017-12-08T18:54:06.669Z,7.73
2017-12-08T18:56:33.076Z,7.61
2017-12-08T18:58:59.524Z,7.45
2017-12-08T19:01:25.910Z,7.39
2017-12-08T19:03:52.276Z,7.31
2017-12-08T19:06:18.706Z,7.24
2017-12-08T19:08:45.104Z,7.23
2017-12-08T19:11:11.621Z,7.23
2017-12-08T19:13:38.075Z,7.15
2017-12-08T19:16:04.439Z,7.00
2017-12-08T19:18:30.816Z,6.94
2017-12-08T19:20:57.287Z,6.92
2017-12-08T19:23:23.695Z,6.88
2017-12-08T19:25:50.172Z,6.80
2017-12-08T19:28:16.715Z,6.76
2017-12-08T19:30:43.100Z,6.76
2017-12-08T19:33:09.622Z,6.69
2017-12-08T19:35:36.466Z,6.63
2017-12-08T19:38:03.877Z,6.70
2017-12-08T19:40:30.281Z,6.81
2017-12-08T19:42:56.784Z,6.82
2017-12-08T19:45:23.166Z,6.71
2017-12-08T19:47:49.657Z,6.73
2017-12-08T19:50:16.113Z,6.78
2017-12-08T19:52:42.530Z,6.84
2017-12-08T19:55:08.904Z,6.80
2017-12-08T19:57:35.350Z,6.77
2017-12-08T20:00:01.926Z,6.73
2017-12-08T20:02:28.323Z,6.79
2017-12-08T20:04:54.790Z,6.81
2017-12-08T20:07:21.192Z,6.86
2017-12-08T20:09:47.657Z,6.84
2017-12-08T20:12:14.140Z,6.64
2017-12-08T20:14:40.529Z,6.47
2017-12-08T20:17:06.904Z,6.45
2017-12-08T20:19:33.356Z,6.48
2017-12-08T20:21:59.799Z,6.51
2017-12-08T20:24:26.190Z,6.60
2017-12-08T20:26:52.661Z,6.62
2017-12-08T20:29:19.052Z,6.65
2017-12-08T20:31:45.431Z,6.66
2017-12-08T20:34:11.896Z,6.58
2017-12-08T20:36:38.425Z,6.37
2017-12-08T20:39:04.980Z,6.29
2017-12-08T20:41:31.373Z,6.16
2017-12-08T20:43:57.705Z,6.08
2017-12-08T20:46:24.084Z,6.10
2017-12-08T20:48:50.487Z,6.10
2017-12-08T20:51:16.848Z,6.20
2017-12-08T20:53:43.254Z,6.27
2017-12-08T20:56:09.789Z,6.16
2017-12-08T20:58:36.197Z,6.07
2017-12-08T21:01:02.573Z,6.12
2017-12-08T21:03:29.017Z,6.05
2017-12-08T21:05:55.475Z,6.03
2017-12-08T21:08:21.884Z,6.03
2017-12-08T21:10:48.492Z,5.98
2017-12-08T21:13:14.864Z,5.92
2017-12-08T21:15:41.277Z,5.89
2017-12-08T21:18:07.790Z,5.87
2017-12-08T21:20:34.173Z,5.86
2017-12-08T21:23:00.536Z,5.98
2017-12-08T21:25:27.005Z,6.06
2017-12-08T21:27:53.496Z,6.03
2017-12-08T21:30:19.977Z,6.00
2017-12-08T21:32:46.390Z,5.98
2017-12-08T21:35:12.822Z,6.06
2017-12-08T21:37:39.180Z,6.03
2017-12-08T21:40:05.584Z,6.02
2017-12-08T21:42:31.944Z,5.97
2017-12-08T21:44:58.290Z,5.79
2017-12-08T21:47:24.785Z,5.80
2017-12-08T21:49:51.216Z,5.85
2017-12-08T21:52:17.600Z,5.94
2017-12-08T21:54:44.016Z,5.82
2017-12-08T21:57:10.360Z,5.74
2017-12-08T21:59:36.785Z,5.66
2017-12-08T22:02:03.280Z,5.65
2017-12-08T22:04:29.732Z,5.55
2017-12-08T22:06:56.124Z,5.56
2017-12-08T22:09:22.587Z,5.54
2017-12-08T22:11:48.945Z,5.58
2017-12-08T22:14:15.535Z,5.70
2017-12-08T22:16:41.989Z,5.62
2017-12-08T22:19:08.400Z,5.54
2017-12-08T22:21:34.849Z,5.47
2017-12-08T22:24:01.457Z,5.42
2017-12-08T22:26:27.904Z,5.37
2017-12-08T22:28:54.338Z,5.29
2017-12-08T22:31:20.760Z,5.18
2017-12-08T22:33:47.203Z,5.12
2017-12-08T22:36:13.708Z,5.19
2017-12-08T22:38:40.273Z,5.03
2017-12-08T22:41:06.827Z,4.93
2017-12-08T22:43:33.428Z,4.87
2017-12-08T22:45:59.899Z,4.98
2017-12-08T22:48:26.300Z,5.12
2017-12-08T22:50:52.830Z,5.11
2017-12-08T22:53:19.342Z,5.12
2017-12-08T22:55:45.711Z,5.09
2017-12-08T22:58:12.186Z,5.06
2017-12-08T23:00:38.664Z,5.01
2017-12-08T23:03:05.175Z,5.01
2017-12-08T23:05:31.549Z,4.96
2017-12-08T23:07:58.009Z,5.11
2017-12-08T23:10:24.411Z,5.26
2017-12-08T23:12:50.844Z,5.30
2017-12-08T23:15:17.399Z,5.28
2017-12-08T23:17:43.820Z,5.22
2017-12-08T23:20:10.217Z,5.14
2017-12-08T23:22:36.655Z,5.14
2017-12-08T23:25:03.139Z,5.14
2017-12-08T23:27:29.487Z,5.14
2017-12-08T23:29:55.908Z,4.99
2017-12-08T23:32:22.252Z,4.85
2017-12-08T23:34:48.596Z,4.93
2017-12-08T23:37:15.216Z,5.02
2017-12-08T23:39:41.750Z,4.99
2017-12-08T23:42:08.274Z,4.85
2017-12-08T23:44:34.685Z,5.00
2017-12-08T23:47:01.093Z,4.99
2017-12-08T23:49:27.491Z,4.98
2017-12-08T23:51:53.954Z,4.93
2017-12-08T23:54:20.264Z,4.83
2017-12-08T23:56:46.627Z,4.71
2017-12-08T23:59:13.009Z,4.75
